Terminal Aerodrome Forecast
Issued by NWS

Home | Current Version | Previous Version | Text Only | Print | Product List | Glossary On
Versions: 1 2 3 4 5 6 7 8 9 10 11 12 13 14 15 16 17 18 19 20 21
000
FTUS41 KCLE 072337
TAFFDY
TAF
KFDY 072337Z 0800/0824 24010KT P6SM BKN100
     FM081000 26015G25KT P6SM OVC050
     FM081800 26020G30KT P6SM OVC035=

USA.gov is the U.S. government's official web portal to all federal, state and local government web resources and services.